createdAt,value
2022-12-25T00:00:23.409Z,1.60
2022-12-25T00:04:47.561Z,1.60
2022-12-25T00:08:51.168Z,1.40
2022-12-25T00:12:55.329Z,2.60
2022-12-25T00:16:58.940Z,2.10
2022-12-25T00:21:02.895Z,1.90
2022-12-25T00:25:08.084Z,1.30
2022-12-25T00:29:11.714Z,1.50
2022-12-25T00:33:17.299Z,3.60
2022-12-25T00:37:21.370Z,1.50
2022-12-25T00:41:26.030Z,1.80
2022-12-25T00:45:30.200Z,1.70
2022-12-25T00:49:34.348Z,1.10
2022-12-25T00:52:39.831Z,2.10
2022-12-25T00:56:43.266Z,1.60
2022-12-25T01:00:47.866Z,2.40
2022-12-25T01:04:52.422Z,3.50
2022-12-25T01:08:48.790Z,3.80
2022-12-25T01:12:54.458Z,5.50
2022-12-25T01:17:08.265Z,3.20
2022-12-25T01:21:04.915Z,1.70
2022-12-25T01:25:08.557Z,2.80
2022-12-25T01:29:12.141Z,3.10
2022-12-25T01:33:08.723Z,2.00
2022-12-25T01:37:15.637Z,1.90
2022-12-25T01:41:19.237Z,2.50
2022-12-25T01:45:38.376Z,3.30
2022-12-25T01:49:48.389Z,6.40
2022-12-25T01:53:52.407Z,2.70
2022-12-25T01:57:49.889Z,2.90
2022-12-25T02:01:53.641Z,2.30
2022-12-25T02:06:09.182Z,3.70
2022-12-25T02:10:11.280Z,3.50
2022-12-25T02:13:50.011Z,3.00
2022-12-25T02:17:46.913Z,3.90
2022-12-25T02:21:52.088Z,3.20
2022-12-25T02:26:01.347Z,4.30
2022-12-25T02:30:13.766Z,3.00
2022-12-25T02:34:23.971Z,5.40
2022-12-25T02:38:30.837Z,4.60
2022-12-25T02:42:40.659Z,8.10
2022-12-25T02:46:40.467Z,4.60
2022-12-25T02:50:43.430Z,4.80
2022-12-25T02:54:46.740Z,5.90
2022-12-25T02:58:40.375Z,3.50
2022-12-25T03:02:26.037Z,3.40
2022-12-25T03:06:28.419Z,3.30
2022-12-25T03:10:36.248Z,7.30
2022-12-25T03:14:45.718Z,2.60
2022-12-25T03:18:55.259Z,3.60
2022-12-25T03:23:06.404Z,4.20
2022-12-25T03:27:16.889Z,5.90
2022-12-25T03:31:08.375Z,4.80
2022-12-25T03:35:24.194Z,4.80
2022-12-25T03:39:36.751Z,3.50
2022-12-25T03:43:38.609Z,2.60
2022-12-25T03:47:57.755Z,6.30
2022-12-25T03:52:00.207Z,4.50
2022-12-25T03:56:13.745Z,4.40
2022-12-25T04:00:12.537Z,6.00
2022-12-25T04:04:14.488Z,7.90
2022-12-25T04:08:17.314Z,4.60
2022-12-25T04:12:19.952Z,3.10
2022-12-25T04:16:22.929Z,7.40
2022-12-25T04:20:35.822Z,5.60
2022-12-25T04:24:13.370Z,3.30
2022-12-25T04:28:04.067Z,2.70
2022-12-25T04:31:39.374Z,6.50
2022-12-25T04:35:41.786Z,3.90
2022-12-25T04:39:47.023Z,5.10
2022-12-25T04:43:39.325Z,6.40
2022-12-25T04:47:42.919Z,3.70
2022-12-25T04:51:52.699Z,4.00
2022-12-25T04:55:50.969Z,5.80
2022-12-25T04:59:53.375Z,5.00
2022-12-25T05:03:57.184Z,4.50
2022-12-25T05:07:58.306Z,3.70
2022-12-25T05:12:06.361Z,5.70
2022-12-25T05:16:10.834Z,3.30
2022-12-25T05:20:14.490Z,6.40
2022-12-25T05:24:08.760Z,4.50
2022-12-25T05:28:12.317Z,9.20
2022-12-25T05:32:16.134Z,4.40
2022-12-25T05:36:05.017Z,3.90
2022-12-25T05:40:08.131Z,10.10
2022-12-25T05:43:24.187Z,3.60
2022-12-25T05:47:27.763Z,5.20
2022-12-25T05:50:51.650Z,5.20
2022-12-25T05:54:54.423Z,11.40
2022-12-25T05:58:58.374Z,6.40
2022-12-25T06:03:02.149Z,5.30
2022-12-25T06:07:04.721Z,4.20
2022-12-25T06:11:04.945Z,4.50
2022-12-25T06:15:08.991Z,3.90
2022-12-25T06:19:14.211Z,4.90
2022-12-25T06:23:03.683Z,5.80
2022-12-25T06:26:57.677Z,6.00
2022-12-25T06:30:07.199Z,4.10
2022-12-25T06:33:20.645Z,4.00
2022-12-25T06:37:24.342Z,4.60
2022-12-25T06:41:22.896Z,3.70
2022-12-25T06:45:26.732Z,2.90
2022-12-25T06:49:31.362Z,8.50
2022-12-25T06:53:29.366Z,4.30
2022-12-25T06:57:36.253Z,4.60
2022-12-25T07:01:39.986Z,9.80
2022-12-25T07:05:42.913Z,4.20
2022-12-25T07:09:30.814Z,2.80
2022-12-25T07:13:33.169Z,6.80
2022-12-25T07:17:25.597Z,6.70
2022-12-25T07:21:36.554Z,7.30
2022-12-25T07:25:40.305Z,6.20
2022-12-25T07:29:44.515Z,4.60
2022-12-25T07:33:18.036Z,5.50
2022-12-25T07:36:54.585Z,2.80
2022-12-25T07:40:59.332Z,5.70
2022-12-25T07:45:02.943Z,5.80
2022-12-25T07:48:52.269Z,3.10
2022-12-25T07:52:56.053Z,3.70
2022-12-25T07:56:48.883Z,5.00
2022-12-25T08:00:52.799Z,4.20
2022-12-25T08:04:59.780Z,5.50
2022-12-25T08:09:02.475Z,3.40
2022-12-25T08:13:12.434Z,3.80
2022-12-25T08:17:23.893Z,3.10
2022-12-25T08:21:27.610Z,4.10
2022-12-25T08:25:31.226Z,4.90
2022-12-25T08:29:34.948Z,3.00
2022-12-25T08:33:56.076Z,4.30
2022-12-25T08:37:43.681Z,6.70
2022-12-25T08:41:51.524Z,6.20
2022-12-25T08:45:45.205Z,5.20
2022-12-25T08:49:42.200Z,4.20
2022-12-25T08:53:45.676Z,4.00
2022-12-25T08:57:27.746Z,4.00
2022-12-25T09:01:31.619Z,3.80
2022-12-25T09:05:23.935Z,3.90
2022-12-25T09:09:06.795Z,3.50
2022-12-25T09:13:10.404Z,4.20
2022-12-25T09:17:01.266Z,3.80
2022-12-25T09:24:40.735Z,4.70
2022-12-25T09:28:35.362Z,3.60
2022-12-25T09:32:29.158Z,5.00
2022-12-25T09:36:26.488Z,3.80
2022-12-25T09:40:17.031Z,3.30
2022-12-25T09:43:58.710Z,5.20
2022-12-25T09:48:01.333Z,5.10
2022-12-25T09:51:50.296Z,5.10
2022-12-25T09:55:41.672Z,4.90
2022-12-25T09:59:45.270Z,4.90
2022-12-25T10:03:52.226Z,8.70
2022-12-25T10:07:57.332Z,5.80
2022-12-25T10:12:05.716Z,6.30
2022-12-25T10:16:14.937Z,8.50
2022-12-25T10:20:36.910Z,7.10
2022-12-25T10:24:41.324Z,6.50
2022-12-25T10:28:36.976Z,3.80
2022-12-25T10:32:33.186Z,4.20
2022-12-25T10:35:45.724Z,6.10
2022-12-25T10:39:46.375Z,5.30
2022-12-25T10:43:00.240Z,2.60
2022-12-25T10:47:00.724Z,8.90
2022-12-25T10:51:07.780Z,6.90
2022-12-25T10:55:29.352Z,5.60
2022-12-25T10:59:33.383Z,4.00
2022-12-25T11:03:37.526Z,4.30
2022-12-25T11:07:53.704Z,2.80
2022-12-25T11:11:57.797Z,6.40
2022-12-25T11:16:04.297Z,4.00
2022-12-25T11:20:20.142Z,2.10
2022-12-25T11:24:03.262Z,4.40
2022-12-25T11:28:07.395Z,4.00
2022-12-25T11:32:11.135Z,4.40
2022-12-25T11:36:11.041Z,4.40
2022-12-25T11:40:23.839Z,7.40
2022-12-25T11:44:28.095Z,2.90
2022-12-25T11:48:32.138Z,5.80
2022-12-25T11:52:21.973Z,4.50
2022-12-25T11:55:49.610Z,8.50
2022-12-25T11:59:53.213Z,5.70
2022-12-25T12:03:35.844Z,4.70
2022-12-25T12:08:04.916Z,3.70
2022-12-25T12:11:52.840Z,5.20
2022-12-25T12:16:06.070Z,10.00
2022-12-25T12:20:07.651Z,5.90
2022-12-25T12:27:41.097Z,5.80
2022-12-25T12:31:35.436Z,5.70
2022-12-25T12:35:54.551Z,8.20
2022-12-25T12:39:51.618Z,11.30
2022-12-25T12:43:47.109Z,6.80
2022-12-25T12:47:50.686Z,9.20
2022-12-25T12:52:09.976Z,9.10
2022-12-25T12:56:12.894Z,10.40
2022-12-25T13:00:17.232Z,10.00
2022-12-25T13:04:39.574Z,14.20
2022-12-25T13:08:49.287Z,14.60
2022-12-25T13:12:37.689Z,15.50
2022-12-25T13:16:41.832Z,12.60
2022-12-25T13:20:57.191Z,17.50
2022-12-25T13:24:49.460Z,22.40
2022-12-25T13:28:54.731Z,11.80
2022-12-25T13:32:57.895Z,9.80
2022-12-25T13:36:54.607Z,12.10
2022-12-25T13:41:04.096Z,14.60
2022-12-25T13:45:07.715Z,15.40
2022-12-25T13:49:11.349Z,15.20
2022-12-25T13:53:10.770Z,10.10
2022-12-25T13:57:12.142Z,15.30
2022-12-25T14:01:19.026Z,12.30
2022-12-25T14:05:22.705Z,12.10
2022-12-25T14:09:26.724Z,12.10
2022-12-25T14:13:30.409Z,11.20
2022-12-25T14:17:34.109Z,16.90
2022-12-25T14:21:40.524Z,14.40
2022-12-25T14:25:49.320Z,11.80
2022-12-25T14:29:54.521Z,11.10
2022-12-25T14:33:58.711Z,12.10
2022-12-25T14:38:00.040Z,12.50
2022-12-25T14:46:14.031Z,9.90
2022-12-25T14:50:19.161Z,11.00
2022-12-25T14:54:28.621Z,12.90
2022-12-25T14:58:42.549Z,11.90
2022-12-25T15:02:38.962Z,9.60
2022-12-25T15:06:58.164Z,8.70
2022-12-25T15:11:01.189Z,9.90
2022-12-25T15:15:14.363Z,10.80
2022-12-25T15:18:45.649Z,11.60
2022-12-25T15:22:47.693Z,14.00
2022-12-25T15:27:06.658Z,14.30
2022-12-25T15:30:56.849Z,13.60
2022-12-25T15:34:50.287Z,13.10
2022-12-25T15:38:27.975Z,12.50
2022-12-25T15:42:33.191Z,10.60
2022-12-25T15:46:36.703Z,10.20
2022-12-25T15:50:06.111Z,8.50
2022-12-25T15:53:55.772Z,15.80
2022-12-25T15:58:02.194Z,14.00
2022-12-25T16:02:07.477Z,10.40
2022-12-25T16:06:11.121Z,8.90
2022-12-25T16:10:11.488Z,11.10
2022-12-25T16:14:08.034Z,13.60
2022-12-25T16:18:14.746Z,10.10
2022-12-25T16:22:14.790Z,12.70
2022-12-25T16:26:18.394Z,9.40
2022-12-25T16:34:00.466Z,8.60
2022-12-25T16:38:05.805Z,11.70
2022-12-25T16:42:01.491Z,13.10
2022-12-25T16:45:43.419Z,10.30
2022-12-25T16:49:46.986Z,11.70
2022-12-25T16:53:15.014Z,10.60
2022-12-25T16:56:51.926Z,9.40
2022-12-25T17:00:19.632Z,8.90
2022-12-25T17:04:02.202Z,11.20
2022-12-25T17:07:51.287Z,9.80
2022-12-25T17:11:30.460Z,9.40
2022-12-25T17:15:01.795Z,9.10
2022-12-25T17:18:35.023Z,11.80
2022-12-25T17:21:59.815Z,10.40
2022-12-25T17:25:42.021Z,8.80
2022-12-25T17:30:15.419Z,10.50
2022-12-25T17:33:58.689Z,15.40
2022-12-25T17:37:20.563Z,11.80
2022-12-25T17:40:56.952Z,12.10
2022-12-25T17:44:57.738Z,11.00
2022-12-25T17:48:32.439Z,14.70
2022-12-25T17:52:02.904Z,11.30
2022-12-25T17:55:38.255Z,12.30
2022-12-25T17:59:00.587Z,14.10
2022-12-25T18:02:47.152Z,13.60
2022-12-25T18:06:35.846Z,14.00
2022-12-25T18:10:14.965Z,12.50
2022-12-25T18:13:44.817Z,14.30
2022-12-25T18:17:42.453Z,19.20
2022-12-25T18:21:08.036Z,13.60
2022-12-25T18:25:02.506Z,16.90
2022-12-25T18:28:17.515Z,19.90
2022-12-25T18:31:55.813Z,15.60
2022-12-25T18:35:31.129Z,14.60
2022-12-25T18:39:08.875Z,18.90
2022-12-25T18:43:05.468Z,19.30
2022-12-25T18:46:48.626Z,18.00
2022-12-25T18:50:42.121Z,18.50
2022-12-25T18:54:28.629Z,18.80
2022-12-25T18:57:41.014Z,15.40
2022-12-25T19:01:51.262Z,16.20
2022-12-25T19:05:57.854Z,13.50
2022-12-25T19:10:18.334Z,11.90
2022-12-25T19:13:52.469Z,15.00
2022-12-25T19:17:40.179Z,13.90
2022-12-25T19:21:06.489Z,14.50
2022-12-25T19:24:52.859Z,16.70
2022-12-25T19:28:27.885Z,10.50
2022-12-25T19:32:24.176Z,11.50
2022-12-25T19:36:08.828Z,9.60
2022-12-25T19:40:08.047Z,11.30
2022-12-25T19:43:55.060Z,15.90
2022-12-25T19:47:37.612Z,15.70
2022-12-25T19:51:35.973Z,12.10
2022-12-25T19:55:22.657Z,13.60
2022-12-25T19:59:10.333Z,12.90
2022-12-25T20:03:03.405Z,12.00
2022-12-25T20:06:38.906Z,12.70
2022-12-25T20:10:34.641Z,11.10
2022-12-25T20:14:10.557Z,11.80
2022-12-25T20:17:38.582Z,14.10
2022-12-25T20:21:26.928Z,11.50
2022-12-25T20:25:13.912Z,10.70
2022-12-25T20:28:28.522Z,15.90
2022-12-25T20:32:17.717Z,15.70
2022-12-25T20:36:01.209Z,13.00
2022-12-25T20:39:42.347Z,12.80
2022-12-25T20:43:45.880Z,15.30
2022-12-25T20:47:22.988Z,11.20
2022-12-25T20:51:18.003Z,12.50
2022-12-25T20:55:20.792Z,10.10
2022-12-25T20:58:57.220Z,9.70
2022-12-25T21:03:00.982Z,13.30
2022-12-25T21:06:42.883Z,12.20
2022-12-25T21:10:16.021Z,12.80
2022-12-25T21:14:08.355Z,12.30
2022-12-25T21:18:05.406Z,10.10
2022-12-25T21:21:47.114Z,10.60
2022-12-25T21:25:20.926Z,10.60
2022-12-25T21:29:00.900Z,9.50
2022-12-25T21:32:37.969Z,14.30
2022-12-25T21:36:38.298Z,11.60
2022-12-25T21:40:34.741Z,12.70
2022-12-25T21:44:23.713Z,10.60
2022-12-25T21:47:59.960Z,10.70
2022-12-25T21:52:14.809Z,11.90
2022-12-25T21:55:39.628Z,11.00
2022-12-25T21:59:37.027Z,9.30
2022-12-25T22:03:23.871Z,12.20
2022-12-25T22:07:02.752Z,9.00
2022-12-25T22:10:40.909Z,11.20
2022-12-25T22:14:17.420Z,9.50
2022-12-25T22:18:10.970Z,10.10
2022-12-25T22:22:18.070Z,11.80
2022-12-25T22:26:21.221Z,12.80
2022-12-25T22:30:12.536Z,9.60
2022-12-25T22:34:14.119Z,8.00
2022-12-25T22:38:09.016Z,12.30
2022-12-25T22:42:05.146Z,8.70
2022-12-25T22:45:54.406Z,10.90
2022-12-25T22:49:42.889Z,10.00
2022-12-25T22:53:38.851Z,8.70
2022-12-25T22:57:42.464Z,6.80
2022-12-25T23:01:38.761Z,11.70
2022-12-25T23:05:43.670Z,7.90
2022-12-25T23:09:04.012Z,10.10
2022-12-25T23:12:47.954Z,6.20
2022-12-25T23:16:43.994Z,8.90
2022-12-25T23:20:46.594Z,9.30
2022-12-25T23:24:33.135Z,6.90
2022-12-25T23:28:19.411Z,10.50
2022-12-25T23:32:17.665Z,10.10
2022-12-25T23:36:13.614Z,6.10
2022-12-25T23:40:16.934Z,5.70
2022-12-25T23:44:19.165Z,6.50
2022-12-25T23:47:43.088Z,6.20
2022-12-25T23:51:45.343Z,9.10
2022-12-25T23:55:55.093Z,9.30
2022-12-25T23:59:59.824Z,8.90
